createdAt,value
2023-01-04T00:01:25.433Z,26.08
2023-01-04T00:03:52.447Z,29.67
2023-01-04T00:06:19.631Z,28.83
2023-01-04T00:08:46.425Z,29.42
2023-01-04T00:11:15.056Z,28.63
2023-01-04T00:13:41.881Z,28.50
2023-01-04T00:16:11.756Z,26.63
2023-01-04T00:18:38.643Z,27.73
2023-01-04T00:21:18.571Z,30.23
2023-01-04T00:23:46.737Z,32.38
2023-01-04T00:26:15.641Z,29.13
2023-01-04T00:28:43.933Z,28.88
2023-01-04T00:31:14.041Z,31.02
2023-01-04T00:33:40.774Z,31.23
2023-01-04T00:36:12.164Z,37.58
2023-01-04T00:38:39.010Z,28.30
2023-01-04T00:41:06.064Z,28.67
2023-01-04T00:43:32.929Z,28.30
2023-01-04T00:46:01.293Z,31.13
2023-01-04T00:48:28.841Z,32.65
2023-01-04T00:50:55.623Z,28.63
2023-01-04T00:53:22.396Z,32.22
2023-01-04T00:55:49.099Z,30.08
2023-01-04T00:58:15.787Z,27.50
2023-01-04T01:00:42.512Z,27.50
2023-01-04T01:03:09.396Z,26.98
2023-01-04T01:05:36.376Z,30.10
2023-01-04T01:08:23.499Z,30.17
2023-01-04T01:10:50.926Z,28.17
2023-01-04T01:13:17.729Z,29.55
2023-01-04T01:15:44.524Z,29.40
2023-01-04T01:18:11.408Z,33.47
2023-01-04T01:20:44.792Z,32.13
2023-01-04T01:23:14.902Z,38.83
2023-01-04T01:25:41.896Z,36.63
2023-01-04T01:28:08.702Z,39.65
2023-01-04T01:30:38.725Z,37.70
2023-01-04T01:33:05.413Z,39.40
2023-01-04T01:35:33.579Z,41.28
2023-01-04T01:38:00.332Z,36.13
2023-01-04T01:40:27.081Z,38.40
2023-01-04T01:42:53.830Z,34.35
2023-01-04T01:45:33.650Z,37.13
2023-01-04T01:48:15.470Z,33.17
2023-01-04T01:50:46.771Z,35.88
2023-01-04T01:53:13.719Z,40.00
2023-01-04T01:55:40.770Z,37.65
2023-01-04T01:58:07.614Z,41.55
2023-01-04T02:00:34.343Z,40.83
2023-01-04T02:03:12.486Z,38.35
2023-01-04T02:05:39.414Z,41.45
2023-01-04T02:08:06.195Z,39.28
2023-01-04T02:10:33.194Z,38.53
2023-01-04T02:13:02.580Z,40.38
2023-01-04T02:15:29.663Z,34.50
2023-01-04T02:18:02.067Z,41.13
2023-01-04T02:20:31.945Z,40.13
2023-01-04T02:23:20.355Z,41.63
2023-01-04T02:26:14.549Z,40.38
2023-01-04T02:29:12.610Z,44.42
2023-01-04T02:31:46.052Z,41.65
2023-01-04T02:34:33.952Z,36.00
2023-01-04T02:37:12.021Z,39.95
2023-01-04T02:39:57.210Z,42.67
2023-01-04T02:42:52.077Z,38.67
2023-01-04T02:45:21.857Z,41.22
2023-01-04T02:48:07.121Z,40.53
2023-01-04T02:50:58.483Z,42.47
2023-01-04T02:53:37.570Z,40.08
2023-01-04T02:56:18.439Z,36.50
2023-01-04T02:58:57.523Z,36.33
2023-01-04T03:02:09.357Z,37.92
2023-01-04T03:05:30.323Z,36.08
2023-01-04T03:08:22.633Z,30.73
2023-01-04T03:11:30.666Z,34.05
2023-01-04T03:14:31.715Z,33.05
2023-01-04T03:16:56.629Z,34.83
2023-01-04T03:19:42.564Z,38.03
2023-01-04T03:22:29.239Z,35.03
2023-01-04T03:25:14.405Z,31.60
2023-01-04T03:27:59.591Z,36.75
2023-01-04T03:30:45.925Z,39.97
2023-01-04T03:33:31.048Z,28.90
2023-01-04T03:36:10.974Z,31.77
2023-01-04T03:39:14.903Z,34.15
2023-01-04T03:42:06.066Z,34.20
2023-01-04T03:45:36.908Z,33.50
2023-01-04T03:48:27.264Z,30.80
2023-01-04T03:51:14.822Z,35.45
2023-01-04T03:53:55.260Z,35.92
2023-01-04T03:56:22.597Z,32.30
2023-01-04T03:58:51.697Z,34.70
2023-01-04T04:01:21.684Z,35.00
2023-01-04T04:04:07.168Z,33.47
2023-01-04T04:06:52.551Z,34.83
2023-01-04T04:09:19.318Z,36.38
2023-01-04T04:11:46.031Z,33.22
2023-01-04T04:14:12.769Z,39.10
2023-01-04T04:16:39.624Z,32.65
2023-01-04T04:19:08.784Z,33.90
2023-01-04T04:21:36.107Z,31.27
2023-01-04T04:24:02.900Z,36.25
2023-01-04T04:26:29.637Z,36.15
2023-01-04T04:28:56.361Z,34.13
2023-01-04T04:31:23.107Z,35.65
2023-01-04T04:33:49.858Z,35.13
2023-01-04T04:36:16.599Z,30.85
2023-01-04T04:38:43.353Z,33.83
2023-01-04T04:41:29.670Z,31.38
2023-01-04T04:43:57.219Z,31.42
2023-01-04T04:46:24.261Z,28.90
2023-01-04T04:48:51.113Z,32.60
2023-01-04T04:51:17.933Z,31.30
2023-01-04T04:53:44.745Z,28.10
2023-01-04T04:56:11.479Z,31.08
2023-01-04T04:58:39.041Z,30.95
2023-01-04T05:01:05.886Z,33.50
2023-01-04T05:03:33.073Z,31.30
2023-01-04T05:05:59.927Z,30.70
2023-01-04T05:08:26.733Z,31.33
2023-01-04T05:10:53.606Z,26.45
2023-01-04T05:13:20.364Z,27.05
2023-01-04T05:15:49.115Z,29.17
2023-01-04T05:18:16.798Z,35.15
2023-01-04T05:20:43.650Z,30.58
2023-01-04T05:23:11.853Z,34.15
2023-01-04T05:25:38.807Z,29.50
2023-01-04T05:28:06.211Z,37.85
2023-01-04T05:30:51.238Z,35.65
2023-01-04T05:33:20.666Z,36.92
2023-01-04T05:35:47.544Z,54.80
2023-01-04T05:38:14.325Z,60.47
2023-01-04T05:40:41.146Z,41.30
2023-01-04T05:43:07.972Z,35.55
2023-01-04T05:45:35.012Z,52.17
2023-01-04T05:48:01.842Z,58.15
2023-01-04T05:50:28.714Z,44.03
2023-01-04T05:52:55.446Z,98.35
2023-01-04T05:55:22.248Z,76.68
2023-01-04T05:57:49.078Z,43.65
2023-01-04T06:00:15.959Z,53.42
2023-01-04T06:02:43.145Z,57.38
2023-01-04T06:05:10.845Z,51.55
2023-01-04T06:07:38.619Z,53.20
2023-01-04T06:10:10.286Z,59.33
2023-01-04T06:12:37.134Z,40.25
2023-01-04T06:15:04.477Z,37.00
2023-01-04T06:17:31.159Z,31.13
2023-01-04T06:19:57.943Z,32.13
2023-01-04T06:22:27.027Z,37.67
2023-01-04T06:24:53.783Z,33.40
2023-01-04T06:27:20.527Z,34.40
2023-01-04T06:29:47.231Z,44.70
2023-01-04T06:32:14.025Z,35.50
2023-01-04T06:34:40.787Z,28.25
2023-01-04T06:37:07.540Z,33.35
2023-01-04T06:39:34.275Z,29.20
2023-01-04T06:42:06.221Z,31.50
2023-01-04T06:44:33.576Z,25.02
2023-01-04T06:47:00.327Z,24.20
2023-01-04T06:49:27.050Z,29.30
2023-01-04T06:51:53.822Z,34.08
2023-01-04T06:54:20.599Z,26.15
2023-01-04T06:56:47.372Z,24.25
2023-01-04T06:59:14.224Z,31.35
2023-01-04T07:01:41.060Z,32.95
2023-01-04T07:04:07.932Z,27.85
2023-01-04T07:06:34.703Z,33.40
2023-01-04T07:09:01.442Z,33.85
2023-01-04T07:11:28.161Z,29.38
2023-01-04T07:13:55.043Z,35.10
2023-01-04T07:16:21.892Z,32.05
2023-01-04T07:18:48.724Z,32.25
2023-01-04T07:21:15.461Z,25.73
2023-01-04T07:23:42.225Z,29.23
2023-01-04T07:26:09.075Z,30.67
2023-01-04T07:28:54.654Z,30.08
2023-01-04T07:31:21.492Z,29.15
2023-01-04T07:33:51.306Z,31.38
2023-01-04T07:36:18.050Z,32.38
2023-01-04T07:38:44.824Z,29.25
2023-01-04T07:41:11.587Z,31.90
2023-01-04T07:43:38.372Z,31.45
2023-01-04T07:46:05.230Z,25.27
2023-01-04T07:48:32.030Z,28.75
2023-01-04T07:50:58.808Z,34.50
2023-01-04T07:53:25.547Z,31.80
2023-01-04T07:55:57.094Z,38.67
2023-01-04T07:58:23.928Z,30.92
2023-01-04T08:00:51.093Z,29.75
2023-01-04T08:03:17.892Z,32.17
2023-01-04T08:05:44.645Z,33.47
2023-01-04T08:08:11.386Z,33.53
2023-01-04T08:10:38.145Z,34.58
2023-01-04T08:13:04.983Z,27.83
2023-01-04T08:15:32.434Z,35.03
2023-01-04T08:17:59.205Z,36.10
2023-01-04T08:20:26.095Z,34.90
2023-01-04T08:22:52.935Z,47.13
2023-01-04T08:25:19.700Z,53.58
2023-01-04T08:27:46.428Z,41.42
2023-01-04T08:30:13.182Z,40.38
2023-01-04T08:32:40.619Z,35.15
2023-01-04T08:35:07.699Z,33.80
2023-01-04T08:37:35.435Z,35.95
2023-01-04T08:40:03.097Z,32.75
2023-01-04T08:42:31.887Z,30.13
2023-01-04T08:45:01.346Z,32.35
2023-01-04T08:47:30.249Z,29.10
2023-01-04T08:49:57.361Z,29.85
2023-01-04T08:52:24.236Z,30.25
2023-01-04T08:54:51.022Z,30.58
2023-01-04T08:57:18.084Z,29.88
2023-01-04T08:59:44.928Z,25.42
2023-01-04T09:02:29.753Z,24.10
2023-01-04T09:05:00.046Z,22.05
2023-01-04T09:07:32.984Z,15.38
2023-01-04T09:10:03.316Z,13.52
2023-01-04T09:12:30.136Z,13.35
2023-01-04T09:14:56.841Z,12.13
2023-01-04T09:17:24.353Z,13.52
2023-01-04T09:19:51.081Z,13.93
2023-01-04T09:22:17.878Z,12.48
2023-01-04T09:24:44.642Z,11.65
2023-01-04T09:27:12.242Z,13.52
2023-01-04T09:29:38.959Z,13.68
2023-01-04T09:32:06.727Z,10.82
2023-01-04T09:34:35.253Z,13.85
2023-01-04T09:37:02.019Z,12.38
2023-01-04T09:39:30.596Z,14.38
2023-01-04T09:42:03.987Z,13.50
2023-01-04T09:48:03.109Z,15.25
2023-01-04T09:50:36.739Z,15.52
2023-01-04T09:53:23.997Z,17.65
2023-01-04T09:55:51.757Z,15.18
2023-01-04T09:58:18.821Z,13.48
2023-01-04T10:01:05.131Z,16.65
2023-01-04T10:03:38.827Z,13.18
2023-01-04T10:06:15.782Z,15.65
2023-01-04T10:08:43.038Z,13.50
2023-01-04T10:11:36.156Z,16.65
2023-01-04T10:14:30.241Z,16.30
2023-01-04T10:17:35.420Z,16.73
2023-01-04T10:23:25.469Z,12.20
2023-01-04T10:25:54.908Z,13.25
2023-01-04T10:28:50.763Z,12.18
2023-01-04T10:31:41.777Z,11.77
2023-01-04T10:34:30.357Z,10.82
2023-01-04T10:36:59.093Z,10.43
2023-01-04T10:39:33.152Z,8.30
2023-01-04T10:42:06.722Z,9.25
2023-01-04T10:45:10.755Z,9.80
2023-01-04T10:47:58.449Z,7.68
2023-01-04T10:50:56.629Z,6.95
2023-01-04T10:53:38.529Z,7.40
2023-01-04T10:56:26.382Z,8.73
2023-01-04T10:58:56.170Z,7.97
2023-01-04T11:01:34.068Z,8.25
2023-01-04T11:04:22.980Z,8.30
2023-01-04T11:07:06.483Z,7.65
2023-01-04T11:09:39.375Z,8.63
2023-01-04T11:12:06.172Z,9.88
2023-01-04T11:14:37.254Z,7.80
2023-01-04T11:17:05.847Z,8.05
2023-01-04T11:19:32.599Z,6.45
2023-01-04T11:22:18.660Z,11.48
2023-01-04T11:25:00.697Z,8.05
2023-01-04T11:27:48.113Z,9.07
2023-01-04T11:30:17.929Z,7.63
2023-01-04T11:32:59.059Z,7.90
2023-01-04T11:35:43.065Z,5.68
2023-01-04T11:38:12.519Z,8.55
2023-01-04T11:40:41.192Z,7.95
2023-01-04T11:43:12.090Z,9.48
2023-01-04T11:45:38.995Z,9.23
2023-01-04T11:48:12.364Z,9.65
2023-01-04T11:50:46.760Z,8.45
2023-01-04T11:53:33.891Z,7.40
2023-01-04T11:56:21.301Z,7.22
2023-01-04T11:59:09.487Z,7.22
2023-01-04T12:01:38.639Z,8.90
2023-01-04T12:04:14.576Z,7.22
2023-01-04T12:06:47.149Z,6.05
2023-01-04T12:09:15.502Z,6.70
2023-01-04T12:11:45.604Z,8.70
2023-01-04T12:14:19.891Z,5.32
2023-01-04T12:16:54.107Z,6.85
2023-01-04T12:19:20.843Z,7.65
2023-01-04T12:21:58.675Z,9.02
2023-01-04T12:24:27.926Z,5.80
2023-01-04T12:26:54.782Z,9.57
2023-01-04T12:29:24.238Z,10.90
2023-01-04T12:32:06.804Z,10.13
2023-01-04T12:34:34.307Z,8.35
2023-01-04T12:37:05.546Z,11.07
2023-01-04T12:39:42.822Z,8.88
2023-01-04T12:42:19.245Z,9.45
2023-01-04T12:44:51.844Z,22.88
2023-01-04T12:47:37.386Z,24.88
2023-01-04T12:50:19.928Z,24.23
2023-01-04T12:55:51.295Z,24.30
2023-01-04T13:01:25.041Z,26.23
2023-01-04T13:04:00.791Z,23.27
2023-01-04T13:06:32.396Z,28.27
2023-01-04T13:08:59.218Z,23.40
2023-01-04T13:12:08.786Z,17.52
2023-01-04T13:14:53.816Z,12.68
2023-01-04T13:17:22.304Z,5.55
2023-01-04T13:19:49.366Z,2.45
2023-01-04T13:22:29.894Z,2.85
2023-01-04T13:24:57.780Z,3.65
2023-01-04T13:27:24.869Z,2.75
2023-01-04T13:29:51.872Z,3.63
2023-01-04T13:32:25.096Z,4.93
2023-01-04T13:35:05.761Z,4.13
2023-01-04T13:37:43.835Z,9.25
2023-01-04T13:40:26.474Z,4.60
2023-01-04T13:43:02.203Z,5.97
2023-01-04T13:45:41.162Z,7.90
2023-01-04T13:48:16.096Z,8.55
2023-01-04T13:50:47.263Z,7.43
2023-01-04T13:53:24.110Z,5.88
2023-01-04T13:55:55.256Z,5.28
2023-01-04T13:58:26.651Z,5.72
2023-01-04T14:00:56.570Z,4.13
2023-01-04T14:03:34.464Z,5.07
2023-01-04T14:06:10.607Z,4.38
2023-01-04T14:09:03.310Z,4.82
2023-01-04T14:12:06.141Z,5.53
2023-01-04T14:14:59.219Z,3.92
2023-01-04T14:17:50.605Z,6.85
2023-01-04T14:20:20.355Z,4.32
2023-01-04T14:22:47.141Z,5.60
2023-01-04T14:25:38.095Z,6.15
2023-01-04T14:28:24.696Z,5.85
2023-01-04T14:30:53.816Z,5.55
2023-01-04T14:33:30.828Z,6.40
2023-01-04T14:36:21.755Z,6.43
2023-01-04T14:39:00.677Z,6.00
2023-01-04T14:41:32.322Z,5.43
2023-01-04T14:44:12.213Z,4.30
2023-01-04T14:46:39.077Z,5.60
2023-01-04T14:49:05.950Z,6.90
2023-01-04T14:51:46.403Z,5.05
2023-01-04T14:54:17.451Z,6.57
2023-01-04T14:56:47.373Z,9.98
2023-01-04T14:59:14.089Z,7.72
2023-01-04T15:01:40.997Z,7.35
2023-01-04T15:04:08.048Z,7.97
2023-01-04T15:06:35.011Z,9.85
2023-01-04T15:09:01.917Z,7.78
2023-01-04T15:11:29.027Z,8.70
2023-01-04T15:13:55.728Z,6.72
2023-01-04T15:16:22.916Z,7.22
2023-01-04T15:18:49.720Z,7.45
2023-01-04T15:21:16.563Z,7.53
2023-01-04T15:23:43.356Z,9.55
2023-01-04T15:26:11.400Z,8.00
2023-01-04T15:28:38.231Z,7.65
2023-01-04T15:31:10.670Z,6.05
2023-01-04T15:33:37.762Z,9.10
2023-01-04T15:36:09.287Z,6.95
2023-01-04T15:38:36.036Z,9.35
2023-01-04T15:41:04.383Z,10.38
2023-01-04T15:43:36.443Z,8.20
2023-01-04T15:46:07.663Z,9.87
2023-01-04T15:48:35.599Z,11.93
2023-01-04T15:51:04.019Z,8.90
2023-01-04T15:53:30.962Z,7.65
2023-01-04T15:56:05.017Z,6.32
2023-01-04T15:58:31.785Z,6.10
2023-01-04T16:01:05.820Z,11.80
2023-01-04T16:03:35.262Z,7.85
2023-01-04T16:06:09.616Z,4.45
2023-01-04T16:08:36.355Z,4.03
2023-01-04T16:11:29.283Z,4.65
2023-01-04T16:13:56.049Z,4.90
2023-01-04T16:16:24.004Z,6.18
2023-01-04T16:18:52.180Z,3.65
2023-01-04T16:21:24.217Z,3.22
2023-01-04T16:23:51.787Z,3.30
2023-01-04T16:26:18.528Z,4.07
2023-01-04T16:28:50.106Z,2.70
2023-01-04T16:31:17.097Z,5.72
2023-01-04T16:33:47.141Z,3.28
2023-01-04T16:36:14.391Z,3.40
2023-01-04T16:38:42.702Z,4.85
2023-01-04T16:41:12.029Z,5.07
2023-01-04T16:43:46.286Z,5.18
2023-01-04T16:46:13.129Z,5.57
2023-01-04T16:48:43.618Z,4.72
2023-01-04T16:51:10.547Z,4.97
2023-01-04T16:53:37.401Z,10.23
2023-01-04T16:56:09.496Z,6.50
2023-01-04T16:58:36.592Z,6.85
2023-01-04T17:01:16.168Z,6.30
2023-01-04T17:03:43.855Z,5.47
2023-01-04T17:06:19.342Z,4.72
2023-01-04T17:08:47.283Z,3.70
2023-01-04T17:12:04.866Z,5.07
2023-01-04T17:14:02.998Z,4.80
2023-01-04T17:16:34.696Z,3.78
2023-01-04T17:19:01.993Z,3.93
2023-01-04T17:21:34.366Z,4.53
2023-01-04T17:24:02.068Z,4.78
2023-01-04T17:26:30.297Z,6.10
2023-01-04T17:28:57.713Z,5.15
2023-01-04T17:31:32.362Z,6.20
2023-01-04T17:33:59.160Z,6.38
2023-01-04T17:36:25.969Z,5.40
2023-01-04T17:38:52.637Z,5.30
2023-01-04T17:41:23.567Z,6.43
2023-01-04T17:43:56.180Z,5.43
2023-01-04T17:46:23.895Z,6.22
2023-01-04T17:49:10.355Z,6.43
2023-01-04T17:51:38.337Z,4.78
2023-01-04T17:54:05.785Z,5.68
2023-01-04T17:56:37.102Z,6.53
2023-01-04T17:59:06.627Z,6.03
2023-01-04T18:01:33.587Z,6.97
2023-01-04T18:04:00.751Z,4.50
2023-01-04T18:06:29.236Z,5.50
2023-01-04T18:08:56.571Z,4.60
2023-01-04T18:11:23.511Z,5.60
2023-01-04T18:13:50.596Z,6.50
2023-01-04T18:16:24.836Z,5.43
2023-01-04T18:18:53.116Z,4.82
2023-01-04T18:21:28.449Z,5.35
2023-01-04T18:27:19.345Z,4.88
2023-01-04T18:29:31.886Z,6.35
2023-01-04T18:31:58.813Z,5.13
2023-01-04T18:34:28.716Z,6.63
2023-01-04T18:36:55.484Z,6.25
2023-01-04T18:39:22.372Z,7.70
2023-01-04T18:41:49.075Z,5.80
2023-01-04T18:44:32.655Z,5.05
2023-01-04T18:47:00.989Z,4.75
2023-01-04T18:49:27.700Z,5.22
2023-01-04T18:51:54.438Z,4.63
2023-01-04T18:54:21.621Z,3.42
2023-01-04T18:56:48.811Z,4.43
2023-01-04T18:59:17.323Z,2.97
2023-01-04T19:01:45.373Z,3.03
2023-01-04T19:04:12.709Z,2.50
2023-01-04T19:06:40.307Z,2.92
2023-01-04T19:09:07.448Z,2.67
2023-01-04T19:11:34.565Z,3.35
2023-01-04T19:14:01.577Z,3.13
2023-01-04T19:16:31.022Z,4.00
2023-01-04T19:19:01.207Z,2.40
2023-01-04T19:21:28.450Z,4.55
2023-01-04T19:23:55.458Z,2.03
2023-01-04T19:26:22.567Z,4.38
2023-01-04T19:28:49.484Z,1.38
2023-01-04T19:31:16.661Z,3.33
2023-01-04T19:33:43.380Z,1.67
2023-01-04T19:36:11.335Z,1.50
2023-01-04T19:38:38.137Z,1.90
2023-01-04T19:41:05.229Z,2.65
2023-01-04T19:43:32.175Z,1.63
2023-01-04T19:45:59.034Z,2.63
2023-01-04T19:48:26.048Z,1.58
2023-01-04T19:51:22.125Z,1.42
2023-01-04T19:53:48.852Z,1.05
2023-01-04T19:56:16.900Z,1.42
2023-01-04T19:58:43.720Z,1.00
2023-01-04T20:01:14.699Z,1.85
2023-01-04T20:03:42.262Z,1.42
2023-01-04T20:06:09.290Z,1.77
2023-01-04T20:08:36.129Z,1.95
2023-01-04T20:11:02.928Z,2.75
2023-01-04T20:13:30.238Z,1.90
2023-01-04T20:15:57.008Z,2.38
2023-01-04T20:18:24.200Z,1.98
2023-01-04T20:20:52.199Z,5.10
2023-01-04T20:23:19.239Z,1.63
2023-01-04T20:25:47.144Z,1.65
2023-01-04T20:28:14.626Z,2.80
2023-01-04T20:30:41.413Z,2.05
2023-01-04T20:33:08.259Z,2.08
2023-01-04T20:35:38.401Z,4.13
2023-01-04T20:38:05.645Z,2.08
2023-01-04T20:40:32.466Z,2.47
2023-01-04T20:43:17.682Z,1.60
2023-01-04T20:45:45.390Z,2.83
2023-01-04T20:48:12.585Z,1.50
2023-01-04T20:50:39.723Z,2.88
2023-01-04T20:53:06.610Z,2.45
2023-01-04T20:55:37.665Z,1.60
2023-01-04T20:58:05.326Z,1.92
2023-01-04T21:00:32.100Z,1.42
2023-01-04T21:02:59.023Z,1.77
2023-01-04T21:05:25.811Z,2.58
2023-01-04T21:07:52.767Z,2.42
2023-01-04T21:10:19.534Z,1.83
2023-01-04T21:12:46.238Z,1.67
2023-01-04T21:15:12.969Z,1.55
2023-01-04T21:17:39.882Z,2.58
2023-01-04T21:20:07.390Z,1.73
2023-01-04T21:22:34.369Z,1.92
2023-01-04T21:25:01.091Z,1.42
2023-01-04T21:27:27.792Z,1.95
2023-01-04T21:29:54.535Z,1.67
2023-01-04T21:32:21.323Z,1.90
2023-01-04T21:34:48.025Z,1.50
2023-01-04T21:37:14.815Z,1.40
2023-01-04T21:39:41.495Z,2.00
2023-01-04T21:42:08.224Z,1.35
2023-01-04T21:44:34.956Z,1.73
2023-01-04T21:47:01.709Z,3.58
2023-01-04T21:49:28.526Z,1.15
2023-01-04T21:51:55.296Z,1.10
2023-01-04T21:54:22.095Z,1.35
2023-01-04T21:56:48.796Z,1.15
2023-01-04T21:59:15.511Z,1.10
2023-01-04T22:01:42.860Z,1.08
2023-01-04T22:04:09.684Z,1.20
2023-01-04T22:06:40.322Z,2.85
2023-01-04T22:09:07.271Z,0.95
2023-01-04T22:11:34.125Z,1.05
2023-01-04T22:14:00.930Z,0.90
2023-01-04T22:16:29.435Z,0.90
2023-01-04T22:18:56.231Z,0.93
2023-01-04T22:21:26.661Z,1.13
2023-01-04T22:23:53.644Z,3.60
2023-01-04T22:26:20.383Z,1.55
2023-01-04T22:28:47.140Z,1.30
2023-01-04T22:31:14.164Z,3.10
2023-01-04T22:33:41.166Z,1.65
2023-01-04T22:36:12.504Z,1.00
2023-01-04T22:38:42.370Z,4.50
2023-01-04T22:41:10.787Z,1.45
2023-01-04T22:43:37.671Z,1.35
2023-01-04T22:46:06.045Z,1.88
2023-01-04T22:48:33.401Z,1.38
2023-01-04T22:51:00.107Z,1.30
2023-01-04T22:53:27.334Z,1.48
2023-01-04T22:56:18.340Z,1.50
2023-01-04T22:58:40.884Z,2.05
2023-01-04T23:01:08.907Z,2.17
2023-01-04T23:03:37.023Z,1.40
2023-01-04T23:06:07.926Z,2.17
2023-01-04T23:08:35.209Z,1.70
2023-01-04T23:11:10.224Z,1.48
2023-01-04T23:13:36.927Z,2.00
2023-01-04T23:16:07.957Z,2.13
2023-01-04T23:18:34.919Z,2.15
2023-01-04T23:21:01.906Z,2.30
2023-01-04T23:23:28.759Z,1.63
2023-01-04T23:25:55.977Z,1.88
2023-01-04T23:28:22.706Z,2.72
2023-01-04T23:30:49.765Z,1.83
2023-01-04T23:33:16.488Z,1.40
2023-01-04T23:35:43.243Z,3.30
2023-01-04T23:38:09.954Z,2.00
2023-01-04T23:40:36.713Z,1.70
2023-01-04T23:43:03.469Z,4.32
2023-01-04T23:45:30.196Z,1.48
2023-01-04T23:47:56.925Z,1.40
2023-01-04T23:50:23.680Z,0.98
2023-01-04T23:52:50.405Z,1.40
2023-01-04T23:55:17.213Z,1.60
2023-01-04T23:57:44.039Z,1.70
